createdAt,value
2023-01-28T00:02:21.948Z,100574.75
2023-01-28T00:04:51.835Z,100572.69
2023-01-28T00:07:20.314Z,100570.22
2023-01-28T00:09:47.897Z,100568.16
2023-01-28T00:12:15.497Z,100569.69
2023-01-28T00:14:43.101Z,100563.41
2023-01-28T00:17:10.697Z,100571.78
2023-01-28T00:19:38.275Z,100568.66
2023-01-28T00:22:07.263Z,100567.72
2023-01-28T00:24:34.824Z,100566.53
2023-01-28T00:27:02.473Z,100567.00
2023-01-28T00:29:30.010Z,100561.28
2023-01-28T00:31:57.588Z,100567.22
2023-01-28T00:34:25.144Z,100567.41
2023-01-28T00:36:57.592Z,100561.38
2023-01-28T00:39:27.733Z,100563.59
2023-01-28T00:41:55.355Z,100556.97
2023-01-28T00:44:22.938Z,100554.38
2023-01-28T00:46:50.607Z,100556.25
2023-01-28T00:49:18.503Z,100560.34
2023-01-28T00:51:46.119Z,100556.38
2023-01-28T00:54:14.099Z,100554.78
2023-01-28T00:56:43.019Z,100551.00
2023-01-28T00:59:10.672Z,100555.97
2023-01-28T01:01:38.306Z,100557.56
2023-01-28T01:04:06.111Z,100560.78
2023-01-28T01:06:36.209Z,100564.78
2023-01-28T01:09:08.320Z,100561.34
2023-01-28T01:11:36.149Z,100565.00
2023-01-28T01:14:07.107Z,100570.13
2023-01-28T01:16:36.113Z,100571.84
2023-01-28T01:19:04.451Z,100576.69
2023-01-28T01:21:32.592Z,100573.69
2023-01-28T01:24:00.270Z,100575.41
2023-01-28T01:26:27.881Z,100571.34
2023-01-28T01:28:56.203Z,100574.97
2023-01-28T01:31:25.214Z,100571.56
2023-01-28T01:33:53.722Z,100575.56
2023-01-28T01:36:22.085Z,100575.38
2023-01-28T01:38:54.007Z,100577.63
2023-01-28T01:41:26.737Z,100572.25
2023-01-28T01:43:56.391Z,100579.06
2023-01-28T01:46:31.772Z,100575.50
2023-01-28T01:49:04.994Z,100580.25
2023-01-28T01:51:35.541Z,100580.88
2023-01-28T01:54:04.044Z,100582.16
2023-01-28T01:56:36.652Z,100581.97
2023-01-28T01:59:05.582Z,100586.16
2023-01-28T02:01:34.536Z,100581.09
2023-01-28T02:04:08.175Z,100584.94
2023-01-28T02:06:37.736Z,100588.03
2023-01-28T02:09:09.100Z,100584.84
2023-01-28T02:11:37.634Z,100581.94
2023-01-28T02:14:07.691Z,100582.91
2023-01-28T02:16:36.727Z,100577.25
2023-01-28T02:19:04.463Z,100590.16
2023-01-28T02:21:58.007Z,100589.81
2023-01-28T02:24:54.948Z,100582.91
2023-01-28T02:27:31.094Z,100586.56
2023-01-28T02:30:07.760Z,100586.94
2023-01-28T02:32:41.691Z,100598.25
2023-01-28T02:35:15.845Z,100585.34
2023-01-28T02:37:48.844Z,100586.13
2023-01-28T02:40:23.384Z,100594.88
2023-01-28T02:42:50.998Z,100597.31
2023-01-28T02:45:46.068Z,100586.13
2023-01-28T02:48:12.974Z,100590.13
2023-01-28T02:50:51.128Z,100585.75
2023-01-28T02:53:44.797Z,100584.81
2023-01-28T02:56:21.509Z,100587.50
2023-01-28T02:58:57.228Z,100589.59
2023-01-28T03:01:33.618Z,100588.34
2023-01-28T03:04:06.782Z,100594.56
2023-01-28T03:06:39.196Z,100591.19
2023-01-28T03:09:24.493Z,100589.59
2023-01-28T03:12:13.855Z,100590.09
2023-01-28T03:15:00.391Z,100599.16
2023-01-28T03:17:53.110Z,100596.81
2023-01-28T03:20:40.958Z,100595.63
2023-01-28T03:23:29.970Z,100585.28
2023-01-28T03:26:19.664Z,100593.75
2023-01-28T03:29:07.183Z,100594.50
2023-01-28T03:31:54.643Z,100605.47
2023-01-28T03:34:42.165Z,100600.78
2023-01-28T03:37:10.053Z,100597.88
2023-01-28T03:39:38.856Z,100607.09
2023-01-28T03:42:09.559Z,100600.03
2023-01-28T03:44:52.944Z,100607.03
2023-01-28T03:47:22.006Z,100607.31
2023-01-28T03:49:52.628Z,100615.63
2023-01-28T03:52:22.559Z,100619.44
2023-01-28T03:54:51.944Z,100618.53
2023-01-28T03:57:21.400Z,100625.69
2023-01-28T03:59:49.731Z,100621.59
2023-01-28T04:02:18.139Z,100625.50
2023-01-28T04:04:45.705Z,100626.25
2023-01-28T04:07:15.462Z,100628.69
2023-01-28T04:09:43.844Z,100624.78
2023-01-28T04:12:11.824Z,100623.75
2023-01-28T04:14:40.378Z,100631.75
2023-01-28T04:17:10.389Z,100624.56
2023-01-28T04:19:38.416Z,100633.44
2023-01-28T04:22:08.878Z,100637.06
2023-01-28T04:24:37.765Z,100637.06
2023-01-28T04:27:05.539Z,100641.34
2023-01-28T04:29:33.105Z,100637.06
2023-01-28T04:32:00.653Z,100632.50
2023-01-28T04:34:28.221Z,100632.88
2023-01-28T04:36:55.792Z,100637.13
2023-01-28T04:39:23.537Z,100639.13
2023-01-28T04:41:52.454Z,100648.34
2023-01-28T04:44:20.037Z,100646.94
2023-01-28T04:46:47.695Z,100646.03
2023-01-28T04:49:15.271Z,100658.25
2023-01-28T04:51:42.891Z,100654.97
2023-01-28T04:54:10.687Z,100645.28
2023-01-28T04:56:38.221Z,100658.78
2023-01-28T04:59:08.180Z,100652.38
2023-01-28T05:01:35.854Z,100650.59
2023-01-28T05:04:05.697Z,100652.00
2023-01-28T05:06:33.457Z,100655.72
2023-01-28T05:09:01.618Z,100642.81
2023-01-28T05:11:29.191Z,100643.03
2023-01-28T05:13:56.731Z,100648.81
2023-01-28T05:16:25.710Z,100638.75
2023-01-28T05:18:53.325Z,100648.25
2023-01-28T05:21:21.125Z,100651.31
2023-01-28T05:23:48.732Z,100652.56
2023-01-28T05:26:16.268Z,100662.25
2023-01-28T05:28:43.893Z,100665.53
2023-01-28T05:31:11.993Z,100664.47
2023-01-28T05:33:40.948Z,100662.78
2023-01-28T05:36:08.880Z,100670.44
2023-01-28T05:38:36.462Z,100674.75
2023-01-28T05:41:04.039Z,100672.41
2023-01-28T05:43:31.595Z,100672.69
2023-01-28T05:45:59.218Z,100673.63
2023-01-28T05:48:27.008Z,100674.47
2023-01-28T05:50:56.002Z,100680.72
2023-01-28T05:53:23.574Z,100676.88
2023-01-28T05:55:52.109Z,100692.28
2023-01-28T05:58:20.070Z,100684.06
2023-01-28T06:00:47.811Z,100694.13
2023-01-28T06:03:15.515Z,100699.53
2023-01-28T06:05:43.259Z,100699.75
2023-01-28T06:08:12.167Z,100703.00
2023-01-28T06:10:39.882Z,100704.41
2023-01-28T06:13:07.626Z,100704.00
2023-01-28T06:15:35.253Z,100711.84
2023-01-28T06:18:02.906Z,100708.41
2023-01-28T06:20:30.598Z,100715.78
2023-01-28T06:22:58.156Z,100716.06
2023-01-28T06:25:27.067Z,100719.97
2023-01-28T06:27:54.728Z,100725.22
2023-01-28T06:30:22.450Z,100726.94
2023-01-28T06:32:55.624Z,100734.06
2023-01-28T06:35:23.385Z,100734.34
2023-01-28T06:37:52.356Z,100732.81
2023-01-28T06:40:19.945Z,100739.19
2023-01-28T06:42:48.856Z,100736.66
2023-01-28T06:45:16.428Z,100752.53
2023-01-28T06:47:43.990Z,100759.59
2023-01-28T06:50:12.592Z,100756.06
2023-01-28T06:52:41.514Z,100756.06
2023-01-28T06:55:09.845Z,100759.19
2023-01-28T06:57:39.253Z,100765.25
2023-01-28T07:00:11.163Z,100759.91
2023-01-28T07:02:38.865Z,100757.84
2023-01-28T07:05:07.555Z,100758.69
2023-01-28T07:07:35.313Z,100767.19
2023-01-28T07:10:02.902Z,100764.28
2023-01-28T07:12:30.514Z,100763.34
2023-01-28T07:14:58.052Z,100765.09
2023-01-28T07:17:27.013Z,100771.16
2023-01-28T07:19:54.594Z,100764.91
2023-01-28T07:22:22.372Z,100773.94
2023-01-28T07:24:49.932Z,100770.44
2023-01-28T07:27:17.489Z,100769.28
2023-01-28T07:29:45.035Z,100771.38
2023-01-28T07:32:12.607Z,100770.25
2023-01-28T07:34:43.072Z,100771.00
2023-01-28T07:37:10.994Z,100769.88
2023-01-28T07:39:38.591Z,100771.38
2023-01-28T07:42:06.462Z,100766.31
2023-01-28T07:44:35.816Z,100769.59
2023-01-28T07:47:03.590Z,100771.59
2023-01-28T07:49:31.173Z,100772.44
2023-01-28T07:52:00.650Z,100780.09
2023-01-28T07:54:28.240Z,100782.69
2023-01-28T07:56:55.777Z,100788.72
2023-01-28T07:59:23.788Z,100790.69
2023-01-28T08:01:53.086Z,100784.47
2023-01-28T08:04:21.785Z,100791.66
2023-01-28T08:06:49.502Z,100790.69
2023-01-28T08:09:18.457Z,100789.19
2023-01-28T08:11:46.059Z,100793.59
2023-01-28T08:14:13.881Z,100789.69
2023-01-28T08:16:41.455Z,100798.06
2023-01-28T08:19:09.216Z,100798.88
2023-01-28T08:21:36.746Z,100803.03
2023-01-28T08:24:04.335Z,100798.50
2023-01-28T08:26:33.265Z,100808.94
2023-01-28T08:29:00.808Z,100803.00
2023-01-28T08:31:29.092Z,100804.41
2023-01-28T08:33:56.776Z,100816.63
2023-01-28T08:36:24.425Z,100804.69
2023-01-28T08:38:54.048Z,100812.44
2023-01-28T08:41:22.176Z,100811.13
2023-01-28T08:43:51.258Z,100801.59
2023-01-28T08:46:18.912Z,100804.25
2023-01-28T08:48:46.559Z,100814.13
2023-01-28T08:51:14.173Z,100809.72
2023-01-28T08:53:41.771Z,100808.88
2023-01-28T08:56:09.348Z,100811.91
2023-01-28T08:58:37.140Z,100808.06
2023-01-28T09:01:07.269Z,100809.97
2023-01-28T09:03:36.135Z,100809.41
2023-01-28T09:06:04.842Z,100814.03
2023-01-28T09:08:33.019Z,100810.06
2023-01-28T09:11:01.718Z,100813.59
2023-01-28T09:13:30.066Z,100819.00
2023-01-28T09:15:58.082Z,100819.56
2023-01-28T09:18:26.974Z,100818.41
2023-01-28T09:20:54.511Z,100817.31
2023-01-28T09:23:22.048Z,100821.91
2023-01-28T09:25:49.661Z,100828.59
2023-01-28T09:28:17.409Z,100830.75
2023-01-28T09:30:44.966Z,100825.56
2023-01-28T09:33:12.518Z,100828.88
2023-01-28T09:35:41.453Z,100831.72
2023-01-28T09:38:09.174Z,100831.84
2023-01-28T09:40:38.830Z,100837.09
2023-01-28T09:43:25.667Z,100835.97
2023-01-28T09:45:56.666Z,100841.19
2023-01-28T09:48:32.710Z,100845.94
2023-01-28T09:51:02.487Z,100851.19
2023-01-28T09:53:32.924Z,100839.84
2023-01-28T09:56:03.661Z,100846.47
2023-01-28T09:58:31.621Z,100843.28
2023-01-28T10:01:05.009Z,100848.78
2023-01-28T10:03:47.913Z,100844.97
2023-01-28T10:06:28.450Z,100848.88
2023-01-28T10:09:13.857Z,100851.88
2023-01-28T10:11:54.569Z,100851.50
2023-01-28T10:14:34.318Z,100843.19
2023-01-28T10:17:08.872Z,100843.34
2023-01-28T10:19:42.089Z,100842.06
2023-01-28T10:22:17.239Z,100846.44
2023-01-28T10:24:50.304Z,100848.13
2023-01-28T10:27:20.842Z,100837.03
2023-01-28T10:29:49.980Z,100843.06
2023-01-28T10:32:26.741Z,100842.69
2023-01-28T10:34:54.496Z,100854.66
2023-01-28T10:37:23.554Z,100846.44
2023-01-28T10:40:02.808Z,100854.13
2023-01-28T10:42:32.238Z,100854.88
2023-01-28T10:45:02.724Z,100859.16
2023-01-28T10:47:39.031Z,100848.63
2023-01-28T10:50:16.348Z,100849.81
2023-01-28T10:52:55.653Z,100855.41
2023-01-28T10:55:25.356Z,100857.84
2023-01-28T10:57:53.926Z,100859.44
2023-01-28T11:00:26.877Z,100854.28
2023-01-28T11:02:55.925Z,100845.97
2023-01-28T11:05:27.163Z,100861.88
2023-01-28T11:08:07.006Z,100866.91
2023-01-28T11:10:36.913Z,100853.56
2023-01-28T11:13:06.255Z,100855.75
2023-01-28T11:15:34.537Z,100867.94
2023-01-28T11:18:04.033Z,100864.75
2023-01-28T11:20:38.424Z,100872.59
2023-01-28T11:23:07.839Z,100877.16
2023-01-28T11:25:37.777Z,100876.88
2023-01-28T11:28:09.103Z,100873.06
2023-01-28T11:30:40.305Z,100869.16
2023-01-28T11:33:16.770Z,100869.13
2023-01-28T11:35:53.834Z,100871.97
2023-01-28T11:38:25.195Z,100865.88
2023-01-28T11:40:53.769Z,100865.31
2023-01-28T11:43:24.353Z,100870.13
2023-01-28T11:46:04.792Z,100859.41
2023-01-28T11:48:42.800Z,100862.22
2023-01-28T11:51:24.962Z,100867.16
2023-01-28T11:54:03.126Z,100861.00
2023-01-28T11:56:45.437Z,100855.88
2023-01-28T11:59:43.199Z,100850.66
2023-01-28T12:02:25.066Z,100858.50
2023-01-28T12:05:17.804Z,100855.03
2023-01-28T12:07:51.942Z,100848.28
2023-01-28T12:10:30.510Z,100839.97
2023-01-28T12:13:15.194Z,100846.16
2023-01-28T12:16:01.378Z,100831.72
2023-01-28T12:18:52.397Z,100825.13
2023-01-28T12:21:29.224Z,100840.28
2023-01-28T12:24:11.267Z,100841.22
2023-01-28T12:26:49.154Z,100833.75
2023-01-28T12:29:25.067Z,100827.31
2023-01-28T12:32:06.186Z,100828.34
2023-01-28T12:35:02.649Z,100826.97
2023-01-28T12:37:42.045Z,100836.53
2023-01-28T12:40:40.307Z,100830.28
2023-01-28T12:43:15.813Z,100829.22
2023-01-28T12:45:48.111Z,100829.97
2023-01-28T12:48:20.319Z,100834.66
2023-01-28T12:50:52.188Z,100824.59
2023-01-28T12:53:27.543Z,100825.72
2023-01-28T12:56:00.570Z,100824.84
2023-01-28T12:58:38.306Z,100820.03
2023-01-28T13:01:10.465Z,100819.19
2023-01-28T13:03:42.824Z,100816.66
2023-01-28T13:06:16.457Z,100824.84
2023-01-28T13:08:44.047Z,100815.19
2023-01-28T13:11:16.905Z,100820.94
2023-01-28T13:13:47.338Z,100820.66
2023-01-28T13:16:15.066Z,100821.78
2023-01-28T13:18:47.501Z,100816.66
2023-01-28T13:21:18.551Z,100829.44
2023-01-28T13:23:47.951Z,100826.56
2023-01-28T13:26:39.334Z,100835.91
2023-01-28T13:29:29.033Z,100831.97
2023-01-28T13:31:57.965Z,100837.03
2023-01-28T13:34:33.569Z,100842.28
2023-01-28T13:37:06.132Z,100839.28
2023-01-28T13:39:36.556Z,100838.50
2023-01-28T13:42:22.888Z,100839.25
2023-01-28T13:44:52.225Z,100840.94
2023-01-28T13:47:26.410Z,100855.75
2023-01-28T13:49:58.480Z,100856.31
2023-01-28T13:52:31.797Z,100864.94
2023-01-28T13:55:04.619Z,100861.28
2023-01-28T13:57:48.974Z,100875.94
2023-01-28T14:00:27.085Z,100879.59
2023-01-28T14:03:21.639Z,100874.81
2023-01-28T14:06:17.318Z,100879.09
2023-01-28T14:09:04.336Z,100890.34
2023-01-28T14:12:23.028Z,100897.31
2023-01-28T14:15:09.285Z,100890.13
2023-01-28T14:17:45.355Z,100903.72
2023-01-28T14:20:20.836Z,100901.13
2023-01-28T14:22:49.295Z,100907.72
2023-01-28T14:25:21.904Z,100902.25
2023-01-28T14:27:54.770Z,100904.56
2023-01-28T14:30:30.347Z,100902.66
2023-01-28T14:32:59.903Z,100915.31
2023-01-28T14:35:31.724Z,100905.03
2023-01-28T14:38:01.829Z,100903.91
2023-01-28T14:40:31.291Z,100913.84
2023-01-28T14:42:59.455Z,100915.94
2023-01-28T14:45:43.305Z,100901.91
2023-01-28T14:48:25.202Z,100912.16
2023-01-28T14:51:20.465Z,100913.75
2023-01-28T14:54:16.935Z,100918.22
2023-01-28T14:56:58.564Z,100920.72
2023-01-28T14:59:29.223Z,100919.78
2023-01-28T15:01:59.345Z,100912.59
2023-01-28T15:04:30.950Z,100920.41
2023-01-28T15:07:03.123Z,100913.88
2023-01-28T15:09:30.860Z,100921.00
2023-01-28T15:11:59.846Z,100918.53
2023-01-28T15:14:30.301Z,100930.28
2023-01-28T15:16:58.417Z,100934.03
2023-01-28T15:19:31.095Z,100938.72
2023-01-28T15:22:01.272Z,100926.78
2023-01-28T15:24:29.117Z,100920.56
2023-01-28T15:26:57.201Z,100924.53
2023-01-28T15:29:26.984Z,100926.78
2023-01-28T15:31:54.670Z,100928.06
2023-01-28T15:34:23.535Z,100921.06
2023-01-28T15:36:52.502Z,100912.72
2023-01-28T15:39:22.428Z,100918.09
2023-01-28T15:41:53.019Z,100916.63
2023-01-28T15:44:29.327Z,100922.00
2023-01-28T15:46:57.853Z,100913.97
2023-01-28T15:49:29.648Z,100911.69
2023-01-28T15:51:58.699Z,100906.63
2023-01-28T15:54:26.897Z,100916.69
2023-01-28T15:56:54.507Z,100930.28
2023-01-28T15:59:27.969Z,100924.09
2023-01-28T16:02:19.699Z,100931.28
2023-01-28T16:04:57.933Z,100931.81
2023-01-28T16:07:28.191Z,100937.59
2023-01-28T16:09:57.834Z,100936.25
2023-01-28T16:12:26.818Z,100931.63
2023-01-28T16:14:57.049Z,100934.63
2023-01-28T16:17:27.977Z,100923.34
2023-01-28T16:19:59.792Z,100926.63
2023-01-28T16:22:35.471Z,100927.84
2023-01-28T16:25:03.574Z,100930.44
2023-01-28T16:27:32.146Z,100925.66
2023-01-28T16:29:59.869Z,100933.13
2023-01-28T16:32:30.206Z,100933.91
2023-01-28T16:34:57.887Z,100945.50
2023-01-28T16:40:01.562Z,100949.31
2023-01-28T16:42:30.369Z,100952.34
2023-01-28T16:44:57.982Z,100952.41
2023-01-28T16:47:25.538Z,100964.53
2023-01-28T16:49:53.130Z,100960.22
2023-01-28T16:52:20.717Z,100958.13
2023-01-28T16:54:48.508Z,100970.66
2023-01-28T16:57:19.842Z,100965.97
2023-01-28T16:59:47.483Z,100958.66
2023-01-28T17:02:16.465Z,100954.34
2023-01-28T17:04:44.036Z,100953.69
2023-01-28T17:07:11.675Z,100962.84
2023-01-28T17:09:39.365Z,100969.00
2023-01-28T17:12:07.700Z,100966.63
2023-01-28T17:14:36.625Z,100968.56
2023-01-28T17:17:04.390Z,100971.50
2023-01-28T17:19:32.038Z,100978.66
2023-01-28T17:21:59.688Z,100972.09
2023-01-28T17:24:27.409Z,100972.53
2023-01-28T17:26:55.234Z,100982.78
2023-01-28T17:29:22.879Z,100986.91
2023-01-28T17:31:51.903Z,100993.88
2023-01-28T17:34:19.593Z,100996.88
2023-01-28T17:36:47.152Z,100993.88
2023-01-28T17:39:14.761Z,100994.25
2023-01-28T17:41:42.409Z,100986.34
2023-01-28T17:44:12.280Z,100980.63
2023-01-28T17:46:39.888Z,100991.31
2023-01-28T17:49:08.820Z,101000.00
2023-01-28T17:51:36.853Z,101004.59
2023-01-28T17:54:04.944Z,101008.38
2023-01-28T17:56:32.904Z,101010.53
2023-01-28T17:59:03.533Z,101011.72
2023-01-28T18:01:32.159Z,101012.03
2023-01-28T18:04:00.204Z,101024.91
2023-01-28T18:06:32.518Z,101028.44
2023-01-28T18:09:00.144Z,101025.00
2023-01-28T18:11:28.641Z,101012.13
2023-01-28T18:13:56.687Z,101013.41
2023-01-28T18:16:24.740Z,101019.28
2023-01-28T18:18:52.349Z,101025.19
2023-01-28T18:21:22.569Z,101012.66
2023-01-28T18:23:54.013Z,101021.19
2023-01-28T18:26:23.645Z,101028.00
2023-01-28T18:28:51.222Z,101027.41
2023-01-28T18:31:19.334Z,101030.25
2023-01-28T18:33:47.350Z,101036.16
2023-01-28T18:36:15.026Z,101033.31
2023-01-28T18:38:42.609Z,101039.72
2023-01-28T18:41:11.510Z,101035.03
2023-01-28T18:43:39.115Z,101027.28
2023-01-28T18:46:12.598Z,101037.84
2023-01-28T18:48:40.403Z,101026.97
2023-01-28T18:51:17.502Z,101027.34
2023-01-28T18:53:57.694Z,101028.31
2023-01-28T18:56:26.676Z,101031.66
2023-01-28T18:58:57.195Z,101033.78
2023-01-28T19:01:24.967Z,101031.78
2023-01-28T19:03:53.935Z,101037.22
2023-01-28T19:06:21.627Z,101038.19
2023-01-28T19:08:53.528Z,101043.69
2023-01-28T19:11:21.557Z,101049.78
2023-01-28T19:13:50.670Z,101056.56
2023-01-28T19:16:18.522Z,101064.97
2023-01-28T19:18:52.435Z,101061.19
2023-01-28T19:21:20.220Z,101066.50
2023-01-28T19:23:50.280Z,101071.09
2023-01-28T19:26:21.153Z,101069.19
2023-01-28T19:28:50.854Z,101069.06
2023-01-28T19:31:20.609Z,101071.41
2023-01-28T19:33:48.879Z,101073.56
2023-01-28T19:36:17.150Z,101073.59
2023-01-28T19:38:45.009Z,101072.81
2023-01-28T19:41:16.003Z,101073.84
2023-01-28T19:43:44.148Z,101085.69
2023-01-28T19:46:16.545Z,101080.25
2023-01-28T19:48:44.638Z,101082.47
2023-01-28T19:51:13.943Z,101074.41
2023-01-28T19:53:43.036Z,101086.28
2023-01-28T19:56:12.739Z,101082.09
2023-01-28T19:58:42.223Z,101081.06
2023-01-28T20:01:12.559Z,101088.50
2023-01-28T20:03:41.959Z,101088.59
2023-01-28T20:06:13.149Z,101094.28
2023-01-28T20:08:41.205Z,101089.25
2023-01-28T20:11:11.323Z,101098.34
2023-01-28T20:13:40.948Z,101087.84
2023-01-28T20:16:14.208Z,101082.94
2023-01-28T20:18:43.295Z,101086.28
2023-01-28T20:21:10.982Z,101092.81
2023-01-28T20:23:38.690Z,101092.38
2023-01-28T20:26:06.573Z,101092.59
2023-01-28T20:28:34.314Z,101086.13
2023-01-28T20:31:06.304Z,101087.13
2023-01-28T20:33:34.280Z,101084.94
2023-01-28T20:36:05.309Z,101088.75
2023-01-28T20:38:35.865Z,101093.44
2023-01-28T20:41:07.010Z,101089.78
2023-01-28T20:43:35.373Z,101096.31
2023-01-28T20:46:04.845Z,101094.59
2023-01-28T20:48:32.694Z,101089.44
2023-01-28T20:51:07.251Z,101098.47
2023-01-28T20:53:35.045Z,101102.59
2023-01-28T20:56:02.827Z,101107.97
2023-01-28T20:58:30.850Z,101107.72
2023-01-28T21:00:58.507Z,101113.94
2023-01-28T21:03:26.308Z,101107.47
2023-01-28T21:05:54.341Z,101107.63
2023-01-28T21:08:23.564Z,101115.44
2023-01-28T21:10:51.172Z,101111.63
2023-01-28T21:13:18.805Z,101111.06
2023-01-28T21:15:57.861Z,101115.63
2023-01-28T21:18:26.482Z,101121.91
2023-01-28T21:20:55.332Z,101121.44
2023-01-28T21:23:25.671Z,101116.59
2023-01-28T21:25:53.365Z,101122.06
2023-01-28T21:28:21.295Z,101114.84
2023-01-28T21:30:48.991Z,101118.38
2023-01-28T21:33:16.669Z,101133.34
2023-01-28T21:35:44.801Z,101128.72
2023-01-28T21:38:12.731Z,101117.00
2023-01-28T21:40:41.687Z,101118.06
2023-01-28T21:43:09.265Z,101108.56
2023-01-28T21:45:36.812Z,101114.22
2023-01-28T21:48:04.542Z,101107.00
2023-01-28T21:50:52.109Z,101108.91
2023-01-28T21:53:19.744Z,101106.03
2023-01-28T21:55:49.385Z,101108.94
2023-01-28T21:58:34.728Z,101104.03
2023-01-28T22:01:09.199Z,101108.94
2023-01-28T22:03:36.823Z,101103.25
2023-01-28T22:06:04.821Z,101093.38
2023-01-28T22:08:32.437Z,101094.78
2023-01-28T22:11:04.542Z,101099.66
2023-01-28T22:13:32.736Z,101089.91
2023-01-28T22:16:00.619Z,101093.69
2023-01-28T22:18:28.258Z,101089.03
2023-01-28T22:20:59.939Z,101089.06
2023-01-28T22:23:27.777Z,101089.66
2023-01-28T22:25:56.162Z,101080.78
2023-01-28T22:28:26.155Z,101086.81
2023-01-28T22:30:54.823Z,101083.19
2023-01-28T22:33:23.303Z,101075.63
2023-01-28T22:35:50.847Z,101087.22
2023-01-28T22:38:18.693Z,101078.75
2023-01-28T22:40:46.362Z,101076.53
2023-01-28T22:43:14.043Z,101071.91
2023-01-28T22:45:43.075Z,101067.06
2023-01-28T22:48:10.738Z,101066.59
2023-01-28T22:50:38.358Z,101065.91
2023-01-28T22:53:05.897Z,101068.53
2023-01-28T22:55:33.797Z,101066.00
2023-01-28T22:58:01.681Z,101062.84
2023-01-28T23:00:29.726Z,101064.84
2023-01-28T23:02:58.731Z,101058.16
2023-01-28T23:05:27.290Z,101059.84
2023-01-28T23:08:10.869Z,101068.19
2023-01-28T23:10:39.439Z,101066.31
2023-01-28T23:13:07.541Z,101069.34
2023-01-28T23:15:52.541Z,101071.50
2023-01-28T23:18:43.030Z,101066.78
2023-01-28T23:21:35.203Z,101077.75
2023-01-28T23:24:21.695Z,101081.06
2023-01-28T23:26:55.080Z,101073.06
2023-01-28T23:29:24.984Z,101075.16
2023-01-28T23:31:55.269Z,101075.97
2023-01-28T23:34:24.495Z,101076.91
2023-01-28T23:36:52.168Z,101080.16
2023-01-28T23:39:19.762Z,101079.72
2023-01-28T23:41:47.382Z,101069.34
2023-01-28T23:44:16.884Z,101064.06
2023-01-28T23:46:45.818Z,101066.69
2023-01-28T23:49:13.792Z,101073.41
2023-01-28T23:51:42.775Z,101069.59
2023-01-28T23:54:10.354Z,101070.97
2023-01-28T23:56:39.060Z,101065.59
2023-01-28T23:59:06.697Z,101065.38
